Time;durP1;ratioP1;P1;durP2;ratioP2;P2;SDS_P1;SDS_P2;PMS_P1;PMS_P2;Temp;Humidity;BMP_temperature;BMP_pressure;BME280_temperature;BME280_humidity;BME280_pressure;Samples;Min_cycle;Max_cycle;Signal;HPM_P1;HPM_P2
2023/01/31 00:00:25;;;;;;;11.97;4.30;;;4.90;99.90;;;;;;5003226;28;20466;-83
2023/01/31 00:02:52;;;;;;;25.10;3.63;;;4.90;99.90;;;;;;5003237;28;20999;-84
2023/01/31 00:05:19;;;;;;;24.53;4.43;;;4.90;99.90;;;;;;5003887;28;20454;-83
2023/01/31 00:07:46;;;;;;;12.43;4.50;;;5.00;99.90;;;;;;5003640;28;20477;-84
2023/01/31 00:10:13;;;;;;;17.33;3.37;;;5.00;99.90;;;;;;5004261;28;20454;-84
2023/01/31 00:12:41;;;;;;;13.37;3.77;;;5.00;99.90;;;;;;5003217;28;20993;-85
2023/01/31 00:15:08;;;;;;;14.17;3.80;;;5.10;99.90;;;;;;5003078;28;20461;-84
2023/01/31 00:17:35;;;;;;;15.70;3.67;;;5.00;99.90;;;;;;5003850;28;20476;-84
2023/01/31 00:20:02;;;;;;;20.97;4.07;;;5.00;99.90;;;;;;5003445;28;20466;-84
2023/01/31 00:22:29;;;;;;;9.70;2.90;;;5.00;99.90;;;;;;5003122;28;20488;-83
2023/01/31 00:24:55;;;;;;;9.50;3.67;;;4.90;99.90;;;;;;5003607;28;20464;-83
2023/01/31 00:27:22;;;;;;;11.10;3.00;;;4.80;99.90;;;;;;5002905;28;20470;-85
2023/01/31 00:29:50;;;;;;;13.43;4.37;;;4.90;99.90;;;;;;5003395;28;20822;-84
2023/01/31 00:32:17;;;;;;;25.43;4.17;;;4.70;99.90;;;;;;5002535;28;20458;-84
2023/01/31 00:34:43;;;;;;;18.37;3.57;;;4.50;99.90;;;;;;5003452;28;20464;-83
2023/01/31 00:37:10;;;;;;;12.90;3.13;;;4.40;99.90;;;;;;5002551;28;20468;-84
2023/01/31 00:39:37;;;;;;;15.20;4.70;;;4.30;99.90;;;;;;5002645;28;20462;-83
2023/01/31 00:42:04;;;;;;;21.90;5.60;;;4.20;99.90;;;;;;5002204;28;20488;-82
2023/01/31 00:44:31;;;;;;;16.27;5.13;;;4.20;99.90;;;;;;5002985;28;20457;-84
2023/01/31 00:46:59;;;;;;;14.57;5.47;;;4.10;99.90;;;;;;5002311;28;20458;-83
2023/01/31 00:49:25;;;;;;;14.50;5.07;;;4.00;99.90;;;;;;5003358;28;20458;-83
2023/01/31 00:51:52;;;;;;;20.20;7.70;;;4.00;99.90;;;;;;5003068;28;20457;-83
2023/01/31 00:54:19;;;;;;;30.07;9.07;;;4.00;99.90;;;;;;5003284;28;20477;-84
2023/01/31 00:56:46;;;;;;;23.80;10.50;;;3.90;99.90;;;;;;5002815;28;20829;-83
2023/01/31 00:59:13;;;;;;;17.83;10.07;;;3.80;99.90;;;;;;5002173;28;20478;-84
2023/01/31 01:01:40;;;;;;;20.07;10.30;;;3.80;99.90;;;;;;5002265;28;20478;-83
2023/01/31 01:04:08;;;;;;;13.13;8.20;;;4.00;99.90;;;;;;5002562;28;20842;-83
2023/01/31 01:06:35;;;;;;;14.83;7.13;;;4.10;99.90;;;;;;5002542;28;20466;-84
2023/01/31 01:09:01;;;;;;;6.73;5.67;;;4.20;99.90;;;;;;5002981;28;20477;-84
2023/01/31 01:11:30;;;;;;;19.77;7.67;;;4.30;99.90;;;;;;5002315;28;20461;-83
2023/01/31 01:13:58;;;;;;;18.10;6.13;;;4.30;99.90;;;;;;5002331;28;20976;-82
2023/01/31 01:16:28;;;;;;;37.97;7.00;;;4.50;99.90;;;;;;5002572;28;20937;-84
2023/01/31 01:18:55;;;;;;;16.30;5.63;;;4.40;99.90;;;;;;5001938;28;20878;-84
2023/01/31 01:21:25;;;;;;;23.17;4.63;;;4.50;99.90;;;;;;5002486;28;20951;-85
2023/01/31 01:23:55;;;;;;;19.40;5.40;;;4.40;99.90;;;;;;5002107;28;20438;-84
2023/01/31 01:26:24;;;;;;;31.93;5.20;;;4.40;99.90;;;;;;5002574;28;20465;-83
2023/01/31 01:28:52;;;;;;;18.80;5.40;;;4.40;99.90;;;;;;5002013;28;20558;-83
2023/01/31 01:31:20;;;;;;;48.23;7.30;;;4.40;99.90;;;;;;5001782;28;20465;-83
2023/01/31 01:33:48;;;;;;;14.80;4.90;;;4.30;99.90;;;;;;5002133;28;20485;-83
2023/01/31 01:36:20;;;;;;;26.47;5.23;;;4.20;99.90;;;;;;5002157;28;20468;-84
2023/01/31 01:38:49;;;;;;;17.03;4.80;;;4.20;99.90;;;;;;5002185;28;20478;-83
2023/01/31 01:41:16;;;;;;;27.33;7.00;;;4.10;99.90;;;;;;5002260;28;20457;-83
2023/01/31 01:43:45;;;;;;;15.23;7.07;;;4.10;99.90;;;;;;5001396;28;20457;-83
2023/01/31 01:46:16;;;;;;;26.80;6.83;;;4.10;99.90;;;;;;5002197;28;20547;-83
2023/01/31 01:48:46;;;;;;;18.70;8.63;;;4.10;99.90;;;;;;5001234;28;20481;-83
2023/01/31 01:51:15;;;;;;;13.17;8.00;;;4.10;99.90;;;;;;5001831;28;20809;-84
2023/01/31 01:53:43;;;;;;;12.73;7.20;;;4.00;99.90;;;;;;5001149;28;20450;-84
2023/01/31 01:56:17;;;;;;;16.90;8.20;;;4.00;99.90;;;;;;5001107;28;20460;-83
2023/01/31 01:58:49;;;;;;;17.47;9.30;;;4.00;99.90;;;;;;5001761;28;20485;-84
2023/01/31 02:01:16;;;;;;;18.80;9.50;;;4.00;99.90;;;;;;5001240;28;20466;-84
2023/01/31 02:03:44;;;;;;;12.17;8.40;;;4.00;99.90;;;;;;5001541;28;20488;-83
2023/01/31 02:06:12;;;;;;;16.40;10.53;;;4.00;99.90;;;;;;5001290;28;20453;-83
2023/01/31 02:08:41;;;;;;;21.90;11.47;;;3.80;99.90;;;;;;5001711;28;20474;-83
2023/01/31 02:11:17;;;;;;;23.50;14.63;;;3.90;99.90;;;;;;5001255;28;20456;-83
2023/01/31 02:13:46;;;;;;;22.53;14.10;;;3.80;99.90;;;;;;5001711;28;20983;-85
2023/01/31 02:16:13;;;;;;;17.77;14.60;;;3.80;99.90;;;;;;5001419;28;20461;-83
2023/01/31 02:18:40;;;;;;;19.03;16.93;;;3.80;99.90;;;;;;5001492;28;20470;-83
2023/01/31 02:21:42;;;;;;;27.13;20.40;;;3.70;99.90;;;;;;5000941;28;20468;-83
2023/01/31 02:24:38;;;;;;;30.77;27.17;;;3.60;99.90;;;;;;5000594;28;20449;-83
2023/01/31 02:27:39;;;;;;;43.33;40.13;;;3.50;99.90;;;;;;4991342;28;20465;-83
2023/01/31 02:30:46;;;;;;;56.17;52.97;;;3.50;99.90;;;;;;5000858;28;20957;-83
2023/01/31 02:33:23;;;;;;;72.00;67.77;;;3.40;99.90;;;;;;4999987;28;20454;-83
2023/01/31 02:36:04;;;;;;;90.77;86.87;;;3.40;99.90;;;;;;5001037;28;20450;-83
2023/01/31 02:38:42;;;;;;;110.47;105.57;;;3.40;99.90;;;;;;5001312;28;20821;-83
2023/01/31 02:41:17;;;;;;;108.90;104.50;;;3.40;99.90;;;;;;5000963;28;20441;-83
2023/01/31 02:46:46;;;;;;;139.27;133.27;;;3.40;99.90;;;;;;5000644;28;20477;-83
2023/01/31 02:49:34;;;;;;;110.20;105.43;;;3.50;99.90;;;;;;5000592;28;20481;-84
2023/01/31 02:52:16;;;;;;;112.90;107.70;;;3.50;99.90;;;;;;5000136;28;20439;-84
2023/01/31 02:57:35;;;;;;;97.13;91.90;;;3.40;99.90;;;;;;5000512;28;20481;-83
2023/01/31 03:00:02;;;;;;;101.10;96.77;;;3.30;99.90;;;;;;5000439;28;20470;-83
2023/01/31 03:02:29;;;;;;;120.23;114.93;;;3.30;99.90;;;;;;5000300;28;20504;-83
2023/01/31 03:04:57;;;;;;;178.10;171.40;;;3.20;99.90;;;;;;5000457;28;20461;-84
2023/01/31 03:07:30;;;;;;;207.73;200.13;;;3.10;99.90;;;;;;5000845;28;20856;-83
2023/01/31 03:10:06;;;;;;;247.77;238.70;;;3.00;99.90;;;;;;5000596;28;20450;-82
2023/01/31 03:12:43;;;;;;;372.10;359.43;;;2.90;99.90;;;;;;5000111;28;20459;-84
2023/01/31 03:18:20;;;;;;;471.47;454.47;;;2.70;99.90;;;;;;5000156;28;20476;-83
2023/01/31 03:20:52;;;;;;;504.33;485.73;;;2.70;99.90;;;;;;4999941;28;20458;-83
2023/01/31 03:23:22;;;;;;;556.13;535.03;;;2.60;99.90;;;;;;5000514;28;20462;-83
2023/01/31 03:25:51;;;;;;;631.23;604.43;;;2.60;99.90;;;;;;5000242;28;20465;-83
2023/01/31 03:28:22;;;;;;;654.63;626.80;;;2.60;99.90;;;;;;5000691;28;21014;-83
2023/01/31 03:30:54;;;;;;;662.97;634.10;;;2.60;99.90;;;;;;5000233;28;20465;-83
2023/01/31 03:33:25;;;;;;;718.63;684.67;;;2.50;99.90;;;;;;5000230;28;20453;-83
2023/01/31 03:36:02;;;;;;;748.97;710.77;;;2.50;99.90;;;;;;5001252;28;20443;-83
2023/01/31 03:38:34;;;;;;;749.47;710.23;;;2.50;99.90;;;;;;5000345;28;20485;-82
2023/01/31 03:41:08;;;;;;;770.63;729.03;;;2.40;99.90;;;;;;5001177;28;20457;-83
2023/01/31 03:43:39;;;;;;;774.60;732.67;;;2.50;99.90;;;;;;5000625;28;20469;-83
2023/01/31 03:46:11;;;;;;;796.83;753.37;;;2.50;99.90;;;;;;5000993;28;20830;-82
2023/01/31 03:48:41;;;;;;;797.27;753.27;;;2.40;99.90;;;;;;5000366;28;20473;-83
2023/01/31 03:51:14;;;;;;;791.87;746.77;;;2.40;99.90;;;;;;5000872;28;20450;-83
2023/01/31 03:53:47;;;;;;;818.60;770.63;;;2.40;99.90;;;;;;4999960;28;20461;-83
2023/01/31 03:56:20;;;;;;;812.07;765.67;;;2.30;99.90;;;;;;5000107;28;20464;-83
2023/01/31 03:58:50;;;;;;;815.67;766.77;;;2.40;99.90;;;;;;5000279;28;20474;-83
2023/01/31 04:01:18;;;;;;;813.00;763.43;;;2.40;99.90;;;;;;5000554;28;20458;-83
2023/01/31 04:03:48;;;;;;;814.83;765.00;;;2.50;99.90;;;;;;4999616;28;20477;-83
2023/01/31 04:06:17;;;;;;;818.97;766.70;;;2.60;99.90;;;;;;5000106;28;20450;-83
2023/01/31 04:08:43;;;;;;;811.27;757.33;;;2.60;99.90;;;;;;5003261;28;20470;-82
2023/01/31 04:11:13;;;;;;;810.20;754.57;;;2.50;99.90;;;;;;5003987;28;20460;-83
2023/01/31 04:13:40;;;;;;;812.63;757.50;;;2.60;99.90;;;;;;5003884;28;20979;-83
2023/01/31 04:16:08;;;;;;;810.33;755.53;;;2.60;99.90;;;;;;5003758;28;20454;-82
2023/01/31 04:18:34;;;;;;;805.80;751.43;;;2.60;99.90;;;;;;5003598;28;20480;-83
2023/01/31 04:21:01;;;;;;;803.77;748.57;;;2.70;99.90;;;;;;5003047;28;20461;-83
2023/01/31 04:23:29;;;;;;;805.47;749.03;;;2.60;99.90;;;;;;5003106;28;20496;-83
2023/01/31 04:25:56;;;;;;;807.10;752.47;;;2.60;99.90;;;;;;5004032;28;20465;-82
2023/01/31 04:28:23;;;;;;;806.73;750.87;;;2.70;99.90;;;;;;5003590;28;20478;-82
2023/01/31 04:30:52;;;;;;;799.53;742.23;;;2.60;99.90;;;;;;5003579;28;20461;-84
2023/01/31 04:33:19;;;;;;;796.43;741.00;;;2.60;99.90;;;;;;5003603;28;20512;-83
2023/01/31 04:35:46;;;;;;;794.33;736.73;;;2.70;99.90;;;;;;5003133;28;20465;-83
2023/01/31 04:38:13;;;;;;;794.93;737.60;;;2.80;99.90;;;;;;5003279;28;20985;-82
2023/01/31 04:40:41;;;;;;;793.60;737.20;;;2.80;99.90;;;;;;5002942;28;20576;-83
2023/01/31 04:43:07;;;;;;;802.77;747.80;;;2.90;99.90;;;;;;5002453;28;20480;-83
2023/01/31 04:45:34;;;;;;;797.07;742.77;;;3.00;99.90;;;;;;5003209;28;20450;-83
2023/01/31 04:48:01;;;;;;;800.57;746.87;;;3.00;99.90;;;;;;5003390;28;20486;-82
2023/01/31 04:50:28;;;;;;;789.17;735.70;;;3.00;99.90;;;;;;5002903;28;20524;-83
2023/01/31 04:52:54;;;;;;;803.00;750.90;;;3.10;99.90;;;;;;5002986;28;20449;-83
2023/01/31 04:55:21;;;;;;;786.57;738.30;;;3.10;99.90;;;;;;5002503;28;20453;-82
2023/01/31 04:57:50;;;;;;;782.53;734.33;;;3.10;99.90;;;;;;5003238;28;20473;-84
2023/01/31 05:00:17;;;;;;;773.97;727.40;;;3.10;99.90;;;;;;5003229;28;20466;-83
2023/01/31 05:02:46;;;;;;;768.67;721.27;;;3.20;99.90;;;;;;5003485;28;20482;-82
2023/01/31 05:05:12;;;;;;;762.13;715.43;;;3.20;99.90;;;;;;5003012;28;20462;-82
2023/01/31 05:07:39;;;;;;;759.27;714.30;;;3.20;99.90;;;;;;5003293;28;20477;-83
2023/01/31 05:10:06;;;;;;;753.00;708.53;;;3.20;99.90;;;;;;5003421;28;20469;-83
2023/01/31 05:12:33;;;;;;;755.07;709.20;;;3.20;99.90;;;;;;5002674;28;20516;-83
2023/01/31 05:15:01;;;;;;;752.90;710.37;;;3.30;99.90;;;;;;5002902;28;20465;-83
2023/01/31 05:17:28;;;;;;;743.33;700.93;;;3.20;99.90;;;;;;5001374;28;20490;-83
2023/01/31 05:19:55;;;;;;;735.97;694.73;;;3.20;99.90;;;;;;5001317;28;20481;-82
2023/01/31 05:22:22;;;;;;;729.00;689.40;;;3.30;99.90;;;;;;5001879;28;20959;-83
2023/01/31 05:24:49;;;;;;;717.77;678.70;;;3.40;99.90;;;;;;5002699;28;20458;-82
2023/01/31 05:27:17;;;;;;;713.87;675.37;;;3.40;99.90;;;;;;5001877;28;20545;-83
2023/01/31 05:29:44;;;;;;;704.30;666.57;;;3.50;99.90;;;;;;5002400;28;20461;-84
2023/01/31 05:32:13;;;;;;;697.60;660.33;;;3.50;99.90;;;;;;5002103;28;20458;-83
2023/01/31 05:34:40;;;;;;;691.60;656.80;;;3.50;99.90;;;;;;5002453;28;20513;-84
2023/01/31 05:37:07;;;;;;;656.73;623.50;;;3.60;99.90;;;;;;5001983;28;20466;-84
2023/01/31 05:39:34;;;;;;;648.47;615.60;;;3.60;99.90;;;;;;5002946;28;20461;-82
2023/01/31 05:42:01;;;;;;;626.70;596.73;;;3.60;99.90;;;;;;5001457;28;20462;-83
2023/01/31 05:44:27;;;;;;;620.80;591.47;;;3.60;99.90;;;;;;5001791;28;20482;-82
2023/01/31 05:46:54;;;;;;;618.60;589.33;;;3.50;99.90;;;;;;5001798;28;20454;-83
2023/01/31 05:49:22;;;;;;;604.07;575.50;;;3.60;99.90;;;;;;5002354;28;20470;-83
2023/01/31 05:51:49;;;;;;;596.77;569.03;;;3.50;99.90;;;;;;5002184;28;20458;-83
2023/01/31 05:54:16;;;;;;;599.27;571.07;;;3.40;99.90;;;;;;5001690;28;20456;-83
2023/01/31 05:56:42;;;;;;;604.57;578.17;;;3.40;99.90;;;;;;5001799;28;20459;-82
2023/01/31 05:59:09;;;;;;;597.60;571.30;;;3.50;99.90;;;;;;5001080;28;20852;-83
2023/01/31 06:01:36;;;;;;;597.20;570.20;;;3.40;99.90;;;;;;5003466;28;20454;-83
2023/01/31 06:04:02;;;;;;;586.37;559.93;;;3.50;99.90;;;;;;5001063;28;21015;-83
2023/01/31 06:06:31;;;;;;;561.20;535.00;;;3.50;99.90;;;;;;5001873;28;20458;-84
2023/01/31 06:08:57;;;;;;;563.27;537.30;;;3.50;99.90;;;;;;5001869;28;20477;-83
2023/01/31 06:11:25;;;;;;;525.50;501.37;;;3.50;99.90;;;;;;5001863;28;20454;-82
2023/01/31 06:13:53;;;;;;;511.10;487.60;;;3.50;99.90;;;;;;5006993;28;20454;-83
2023/01/31 06:16:20;;;;;;;469.17;447.30;;;3.60;99.90;;;;;;5005304;28;20492;-83
2023/01/31 06:18:46;;;;;;;411.60;394.53;;;3.70;99.90;;;;;;5001528;28;20489;-83
2023/01/31 06:21:15;;;;;;;346.93;332.53;;;3.70;99.90;;;;;;5002795;28;20450;-83
2023/01/31 06:23:45;;;;;;;287.27;275.97;;;3.90;99.90;;;;;;5001841;28;20474;-83
2023/01/31 06:26:12;;;;;;;259.87;248.67;;;4.00;99.90;;;;;;5001839;28;20837;-82
2023/01/31 06:28:39;;;;;;;209.07;199.40;;;4.00;99.90;;;;;;5000094;28;20473;-82
2023/01/31 06:31:09;;;;;;;168.97;161.70;;;4.10;99.90;;;;;;5001272;28;20524;-82
2023/01/31 06:33:35;;;;;;;137.30;131.53;;;4.00;99.90;;;;;;5001038;28;20450;-83
2023/01/31 06:36:03;;;;;;;106.93;102.10;;;4.00;99.90;;;;;;5003082;28;20481;-84
2023/01/31 06:38:30;;;;;;;94.67;90.23;;;3.90;99.90;;;;;;5000518;28;20478;-82
2023/01/31 06:40:58;;;;;;;92.10;86.87;;;3.90;99.90;;;;;;5001381;28;20464;-83
2023/01/31 06:43:25;;;;;;;96.97;91.47;;;3.80;99.90;;;;;;5000035;28;20478;-81
2023/01/31 06:45:52;;;;;;;109.43;105.03;;;3.70;99.90;;;;;;5000506;28;20462;-82
2023/01/31 06:48:19;;;;;;;117.70;112.20;;;3.70;99.90;;;;;;5000071;28;20841;-82
2023/01/31 06:50:47;;;;;;;127.30;122.30;;;3.80;99.90;;;;;;5000652;28;20558;-83
2023/01/31 06:53:13;;;;;;;115.53;109.63;;;3.80;99.90;;;;;;5000223;28;20979;-82
2023/01/31 06:55:40;;;;;;;104.53;99.37;;;3.90;99.90;;;;;;5000023;28;20454;-82
2023/01/31 06:58:08;;;;;;;92.13;87.00;;;3.90;99.90;;;;;;5000247;28;20567;-83
2023/01/31 07:00:35;;;;;;;75.23;71.93;;;4.00;99.90;;;;;;5000329;28;20477;-83
2023/01/31 07:03:02;;;;;;;72.80;69.30;;;4.00;99.90;;;;;;4999825;28;20819;-82
2023/01/31 07:05:28;;;;;;;59.90;56.70;;;4.00;99.90;;;;;;5000395;28;20450;-82
2023/01/31 07:07:55;;;;;;;65.50;60.87;;;4.00;99.90;;;;;;5000483;28;20485;-83
2023/01/31 07:10:23;;;;;;;64.60;60.73;;;4.00;99.90;;;;;;5000612;28;20457;-82
2023/01/31 07:12:49;;;;;;;60.27;56.57;;;4.00;99.90;;;;;;4999457;28;20458;-82
2023/01/31 07:15:17;;;;;;;54.13;50.20;;;4.00;99.90;;;;;;5000411;28;20446;-82
2023/01/31 07:17:44;;;;;;;46.47;43.77;;;4.00;99.90;;;;;;5000552;28;20485;-83
2023/01/31 07:20:12;;;;;;;45.57;43.27;;;4.00;99.90;;;;;;4999866;28;20610;-83
2023/01/31 07:22:39;;;;;;;47.83;45.43;;;4.00;99.90;;;;;;4999234;28;20454;-82
2023/01/31 07:25:06;;;;;;;47.17;43.50;;;4.00;99.90;;;;;;5000103;28;20486;-83
2023/01/31 07:27:33;;;;;;;43.27;40.40;;;4.00;99.90;;;;;;4999788;28;20474;-82
2023/01/31 07:30:00;;;;;;;38.50;35.70;;;4.00;99.90;;;;;;4999909;28;20454;-82
2023/01/31 07:32:30;;;;;;;37.77;34.47;;;4.10;99.90;;;;;;4999359;28;20461;-82
2023/01/31 07:34:57;;;;;;;30.30;27.73;;;4.10;99.90;;;;;;4999795;28;20466;-83
2023/01/31 07:37:24;;;;;;;24.43;22.27;;;4.20;99.90;;;;;;4999562;28;20474;-82
2023/01/31 07:39:50;;;;;;;24.40;17.50;;;4.30;99.90;;;;;;5000493;28;20457;-82
2023/01/31 07:42:17;;;;;;;15.73;11.07;;;4.30;99.90;;;;;;4999706;28;20846;-84
2023/01/31 07:44:44;;;;;;;13.00;8.30;;;4.30;99.90;;;;;;5003467;28;20485;-82
2023/01/31 07:47:10;;;;;;;17.87;8.10;;;4.30;99.90;;;;;;5003828;28;20465;-82
2023/01/31 07:49:39;;;;;;;21.37;6.93;;;4.40;99.90;;;;;;5002670;28;20992;-83
2023/01/31 07:52:05;;;;;;;34.20;5.93;;;4.40;99.90;;;;;;5002726;28;20829;-83
2023/01/31 07:54:32;;;;;;;19.23;5.13;;;4.50;99.90;;;;;;5003479;28;20450;-83
2023/01/31 07:56:59;;;;;;;9.20;3.93;;;4.50;99.90;;;;;;5003668;28;20449;-82
2023/01/31 07:59:25;;;;;;;32.63;5.53;;;4.50;99.90;;;;;;5004225;28;21089;-83
2023/01/31 08:04:36;;;;;;;26.37;6.77;;;4.70;99.90;;;;;;5003015;28;20516;-83
2023/01/31 08:07:05;;;;;;;16.00;4.50;;;4.80;99.90;;;;;;5002728;28;20458;-81
2023/01/31 08:09:32;;;;;;;12.77;3.47;;;4.90;99.90;;;;;;5002910;28;20454;-84
2023/01/31 08:11:59;;;;;;;12.87;3.60;;;4.90;99.90;;;;;;5002555;28;20454;-82
2023/01/31 08:14:27;;;;;;;11.30;2.80;;;5.00;99.90;;;;;;5002815;28;20454;-83
2023/01/31 08:16:54;;;;;;;14.40;4.13;;;5.10;99.90;;;;;;5002998;28;20450;-82
2023/01/31 08:19:21;;;;;;;12.07;4.00;;;5.10;99.90;;;;;;5001923;28;20485;-84
2023/01/31 08:21:47;;;;;;;18.73;4.80;;;5.20;99.90;;;;;;5003444;28;20462;-82
2023/01/31 08:24:15;;;;;;;15.90;6.33;;;5.20;99.90;;;;;;5002084;28;20500;-82
2023/01/31 08:26:43;;;;;;;16.83;5.00;;;5.30;99.90;;;;;;5002208;28;20450;-83
2023/01/31 08:29:09;;;;;;;17.70;5.60;;;5.40;99.90;;;;;;5002885;28;20536;-83
2023/01/31 08:31:36;;;;;;;27.43;7.73;;;5.50;99.90;;;;;;5002393;28;20831;-82
2023/01/31 08:34:03;;;;;;;16.60;4.47;;;5.60;99.90;;;;;;5002017;28;20446;-84
2023/01/31 08:36:31;;;;;;;14.13;4.23;;;5.70;99.90;;;;;;5002836;28;20454;-82
2023/01/31 08:38:58;;;;;;;26.20;5.60;;;5.70;99.90;;;;;;5002126;28;20474;-83
2023/01/31 08:41:28;;;;;;;15.20;4.30;;;5.70;99.90;;;;;;4998691;28;20465;-82
2023/01/31 08:43:56;;;;;;;22.87;4.37;;;5.80;99.90;;;;;;5001515;28;20482;-83
2023/01/31 08:46:24;;;;;;;20.63;3.97;;;5.80;99.90;;;;;;5000579;28;20450;-83
2023/01/31 08:48:51;;;;;;;13.20;4.20;;;5.80;99.90;;;;;;5001082;28;20999;-83
2023/01/31 08:51:18;;;;;;;13.87;3.37;;;5.90;99.90;;;;;;5001815;28;20857;-83
2023/01/31 08:53:45;;;;;;;14.53;3.63;;;6.00;99.90;;;;;;5001100;28;20454;-83
2023/01/31 08:56:13;;;;;;;12.50;3.30;;;6.00;99.90;;;;;;5000228;28;20459;-82
2023/01/31 08:58:43;;;;;;;23.57;4.20;;;5.90;99.90;;;;;;5001377;28;20500;-82
2023/01/31 09:01:11;;;;;;;17.07;3.57;;;5.90;99.90;;;;;;5001186;28;20458;-84
2023/01/31 09:03:39;;;;;;;19.57;4.40;;;5.90;99.90;;;;;;5005541;28;20446;-82
2023/01/31 09:06:08;;;;;;;23.90;3.92;;;5.80;99.90;;;;;;5000180;28;20467;-81
2023/01/31 09:08:35;;;;;;;13.60;4.47;;;5.80;99.90;;;;;;5000771;28;20214;-82
2023/01/31 09:11:02;;;;;;;18.27;3.43;;;5.70;99.90;;;;;;5000261;28;20450;-81
2023/01/31 09:13:30;;;;;;;13.83;4.53;;;5.60;99.90;;;;;;5001358;28;20458;-83
2023/01/31 09:15:59;;;;;;;11.77;3.90;;;5.70;99.90;;;;;;4999804;28;20461;-81
2023/01/31 09:18:26;;;;;;;8.27;4.20;;;5.70;99.90;;;;;;5000508;28;20474;-80
2023/01/31 09:20:53;;;;;;;10.40;6.20;;;5.80;99.90;;;;;;5000797;28;20469;-80
2023/01/31 09:23:19;;;;;;;11.53;6.77;;;5.80;99.90;;;;;;5001438;28;20805;-82
2023/01/31 09:25:52;;;;;;;12.93;8.37;;;5.70;99.90;;;;;;5002133;28;20482;-81
2023/01/31 09:28:19;;;;;;;13.40;10.07;;;5.60;99.90;;;;;;5002576;28;20478;-81
2023/01/31 09:30:46;;;;;;;23.77;14.77;;;5.70;99.90;;;;;;5002770;28;20948;-82
2023/01/31 09:33:14;;;;;;;17.00;12.80;;;5.70;99.90;;;;;;5002210;28;20450;-81
2023/01/31 09:35:40;;;;;;;16.30;14.77;;;5.80;99.90;;;;;;5001957;28;20477;-81
2023/01/31 09:38:07;;;;;;;19.37;17.17;;;5.80;99.90;;;;;;5002082;28;20470;-81
2023/01/31 09:40:37;;;;;;;19.13;17.50;;;5.80;99.90;;;;;;5002632;28;20454;-81
2023/01/31 09:43:05;;;;;;;22.13;17.87;;;5.90;99.90;;;;;;5002117;28;20960;-81
2023/01/31 09:45:34;;;;;;;17.70;15.20;;;5.80;99.90;;;;;;5001832;28;20485;-81
2023/01/31 09:48:02;;;;;;;18.47;16.67;;;5.80;99.90;;;;;;5002493;28;20478;-81
2023/01/31 09:50:35;;;;;;;21.77;19.57;;;5.90;99.90;;;;;;5000925;28;20975;-82
2023/01/31 09:53:03;;;;;;;21.70;15.03;;;5.90;99.90;;;;;;4998882;28;20454;-80
2023/01/31 09:55:40;;;;;;;17.97;12.27;;;5.90;99.90;;;;;;5001132;28;20454;-81
2023/01/31 09:58:14;;;;;;;15.87;10.30;;;6.00;99.90;;;;;;5000921;28;20473;-81
2023/01/31 10:00:48;;;;;;;18.60;9.97;;;6.20;99.90;;;;;;5000441;28;20466;-81
2023/01/31 10:03:39;;;;;;;18.97;8.73;;;6.30;99.90;;;;;;5000424;28;20533;-82
2023/01/31 10:06:12;;;;;;;17.67;5.60;;;6.30;99.90;;;;;;4999382;28;20471;-82
2023/01/31 10:08:47;;;;;;;21.20;5.27;;;6.20;99.90;;;;;;5000481;28;20466;-82
2023/01/31 10:11:17;;;;;;;13.20;5.77;;;6.30;99.90;;;;;;5000948;28;20438;-81
2023/01/31 10:13:49;;;;;;;26.87;6.30;;;6.30;99.90;;;;;;5000271;28;20456;-82
2023/01/31 10:16:25;;;;;;;15.73;4.77;;;6.30;99.90;;;;;;5000277;28;20507;-81
2023/01/31 10:18:56;;;;;;;13.50;5.80;;;6.50;99.90;;;;;;5000266;28;20473;-82
2023/01/31 10:21:30;;;;;;;10.53;4.73;;;6.60;99.90;;;;;;5000398;28;20943;-81
2023/01/31 10:24:02;;;;;;;16.47;5.63;;;6.70;99.90;;;;;;4999442;28;20480;-81
2023/01/31 10:26:30;;;;;;;21.60;6.67;;;6.70;99.90;;;;;;5000591;28;20434;-81
2023/01/31 10:29:01;;;;;;;15.50;3.70;;;6.90;99.90;;;;;;5000465;28;20470;-82
2023/01/31 10:31:33;;;;;;;15.40;5.83;;;6.90;99.90;;;;;;5000794;28;20508;-82
2023/01/31 10:34:05;;;;;;;14.57;5.20;;;7.10;99.90;;;;;;5000440;28;20462;-82
2023/01/31 10:36:38;;;;;;;18.50;4.30;;;7.00;99.90;;;;;;4999680;28;20458;-80
2023/01/31 10:39:12;;;;;;;13.80;4.30;;;7.10;99.90;;;;;;4999799;28;20485;-81
2023/01/31 10:41:47;;;;;;;16.47;6.33;;;7.00;99.90;;;;;;4999770;28;20431;-83
2023/01/31 10:44:22;;;;;;;13.13;4.67;;;6.90;99.90;;;;;;4999019;28;20457;-81
2023/01/31 10:46:48;;;;;;;18.13;5.70;;;7.00;99.90;;;;;;4999965;28;20928;-82
2023/01/31 10:49:15;;;;;;;14.43;5.10;;;7.10;99.90;;;;;;4999605;28;20485;-82
2023/01/31 10:52:03;;;;;;;16.93;4.07;;;7.20;99.90;;;;;;4999973;28;20491;-82
2023/01/31 10:54:42;;;;;;;7.07;3.50;;;7.10;99.90;;;;;;4999266;28;20450;-83
2023/01/31 10:57:09;;;;;;;12.13;5.50;;;7.10;99.90;;;;;;4999088;28;20830;-82
2023/01/31 10:59:43;;;;;;;16.27;6.00;;;7.40;99.90;;;;;;4998621;28;20462;-83
2023/01/31 11:02:19;;;;;;;16.37;6.10;;;7.50;99.90;;;;;;4999709;28;20921;-83
2023/01/31 11:04:45;;;;;;;19.20;5.33;;;7.60;99.90;;;;;;4999009;28;20481;-82
2023/01/31 11:07:14;;;;;;;13.63;5.23;;;7.60;99.90;;;;;;4999733;28;20465;-82
2023/01/31 11:09:44;;;;;;;16.77;6.37;;;7.50;99.90;;;;;;4999086;28;20454;-82
2023/01/31 11:12:11;;;;;;;13.00;5.27;;;7.50;99.90;;;;;;4999275;28;20438;-82
2023/01/31 11:14:38;;;;;;;12.53;5.53;;;7.40;99.90;;;;;;4999352;28;20481;-82
2023/01/31 11:17:08;;;;;;;15.37;5.23;;;7.40;99.90;;;;;;5001821;28;20836;-82
2023/01/31 11:19:39;;;;;;;18.70;4.77;;;7.40;99.90;;;;;;5003640;28;20439;-82
2023/01/31 11:22:07;;;;;;;13.60;5.23;;;7.40;99.90;;;;;;5003597;28;20469;-80
2023/01/31 11:24:40;;;;;;;18.50;5.10;;;7.30;99.90;;;;;;5002244;28;20489;-81
2023/01/31 11:27:10;;;;;;;13.60;4.73;;;7.30;99.90;;;;;;5002869;28;20533;-82
2023/01/31 11:29:42;;;;;;;18.97;5.60;;;7.30;99.90;;;;;;5003117;28;20449;-82
2023/01/31 11:32:17;;;;;;;23.80;7.30;;;7.30;99.90;;;;;;5003393;28;20448;-81
2023/01/31 11:34:56;;;;;;;15.37;5.37;;;7.20;99.90;;;;;;5003020;28;20445;-81
2023/01/31 11:37:23;;;;;;;14.43;6.20;;;7.10;99.90;;;;;;5003490;28;20482;-82
2023/01/31 11:39:57;;;;;;;14.53;5.03;;;7.00;99.90;;;;;;5003772;28;20534;-82
2023/01/31 11:42:24;;;;;;;14.07;5.80;;;7.00;99.90;;;;;;5003806;28;20446;-81
2023/01/31 11:44:56;;;;;;;17.43;6.13;;;7.10;99.90;;;;;;5004604;28;20478;-83
2023/01/31 11:47:28;;;;;;;14.10;5.00;;;7.00;99.90;;;;;;5003846;28;20481;-83
2023/01/31 11:49:55;;;;;;;9.73;4.70;;;6.80;99.90;;;;;;5004592;28;20956;-83
2023/01/31 11:52:28;;;;;;;20.43;5.33;;;6.80;99.90;;;;;;5002986;28;20458;-83
2023/01/31 11:55:00;;;;;;;12.33;5.40;;;6.80;99.90;;;;;;5003719;28;20454;-83
2023/01/31 11:57:31;;;;;;;9.00;3.80;;;6.70;99.90;;;;;;5004100;28;20474;-83
2023/01/31 12:00:00;;;;;;;12.60;5.67;;;6.60;99.90;;;;;;5004128;28;20469;-83
2023/01/31 12:02:32;;;;;;;15.57;6.37;;;6.70;99.90;;;;;;5003803;28;20476;-83
2023/01/31 12:05:01;;;;;;;12.83;6.60;;;6.70;99.90;;;;;;5005053;28;20474;-84
2023/01/31 12:07:32;;;;;;;15.43;5.60;;;6.90;99.90;;;;;;5003887;28;20493;-83
2023/01/31 12:10:00;;;;;;;11.83;6.10;;;6.80;99.90;;;;;;5003523;28;21032;-83
2023/01/31 12:12:34;;;;;;;16.37;7.20;;;6.80;99.90;;;;;;5003723;28;20453;-83
2023/01/31 12:15:02;;;;;;;11.77;6.90;;;7.00;99.90;;;;;;5003902;28;20453;-83
2023/01/31 12:17:33;;;;;;;12.33;6.73;;;7.10;99.90;;;;;;5004101;28;20481;-83
2023/01/31 12:20:14;;;;;;;14.77;6.40;;;7.20;99.90;;;;;;5004183;28;20462;-82
2023/01/31 12:22:50;;;;;;;14.90;5.93;;;7.20;99.90;;;;;;5003595;28;20826;-83
2023/01/31 12:25:27;;;;;;;12.40;5.33;;;7.10;99.90;;;;;;5004090;28;20470;-84
2023/01/31 12:28:05;;;;;;;13.73;6.37;;;7.10;99.90;;;;;;5003233;28;20501;-82
2023/01/31 12:30:48;;;;;;;10.10;5.73;;;7.10;99.90;;;;;;5003871;28;20537;-83
2023/01/31 12:33:33;;;;;;;14.33;7.17;;;7.00;99.90;;;;;;5003043;28;20438;-83
2023/01/31 12:36:22;;;;;;;12.80;5.30;;;7.00;99.90;;;;;;5002916;28;20502;-83
2023/01/31 12:39:03;;;;;;;8.20;4.37;;;7.10;99.90;;;;;;5002883;28;21027;-83
2023/01/31 12:41:33;;;;;;;38.97;8.23;;;7.20;99.90;;;;;;5002306;28;20798;-83
2023/01/31 12:44:21;;;;;;;11.17;5.37;;;7.30;99.90;;;;;;5003010;28;20453;-83
2023/01/31 12:47:07;;;;;;;15.13;6.03;;;7.20;99.90;;;;;;5003381;28;20581;-84
2023/01/31 12:49:58;;;;;;;15.80;5.67;;;7.10;99.90;;;;;;5004012;28;20483;-84
2023/01/31 12:52:36;;;;;;;10.47;5.97;;;7.10;99.90;;;;;;5003406;28;20939;-83
2023/01/31 12:55:18;;;;;;;18.20;7.70;;;7.00;99.90;;;;;;5003544;28;20430;-83
2023/01/31 12:57:53;;;;;;;11.47;8.37;;;7.00;99.90;;;;;;5003106;28;20543;-82
2023/01/31 13:00:28;;;;;;;16.90;7.60;;;7.00;99.90;;;;;;5003558;28;20461;-83